Главная страница
METAR-TAF:

METAR-TAF

Аэропорты :

Туле (авиабаза)

Туле, Гренландия

широта: 76-32N, долгота: 068-42W, высота над уровнем моря: 77 м

Текущие метеонаблюдения

Эта сводка был подготовлена 1 час и 51 минут назад, в 04:36 UTC
Ветер 9 Узел от восточно-юго-восточный
Температура -16°C
Влажность 84%
Давление 1011 hPa
Видимость 10 км и более
Сплошная облачность на высоте 2900 фута

METAR: BGTL 130436Z AUTO 12009KT 9999 OVC029 M16/M18 A2986 RMK AO2 SLP102 TSNO $

Время: 02:27 (06:27 UTC)


TAF: отсутствует

Метеонаблюдения и прогнозы для более 4000 аэропортов (сводки METAR и TAF).

Имеющиеся станции представлены на карте желтыми и красными точками.

Чтобы увидеть название станции, наведите на нее мышь.

Затем щелкните, чтобы увидеть метеонаблюдения и метеопрогнозы.

Управление картой: чтобы увеличить масштаб, щелкните зеленые кнопки с черным крестиком; чтобы уменьшить масштаб, щелкните зеленую кнопку с тире; для просмотра соседних карт щелкайте зеленые стрелки.


METAR-TAF: